Home   Weather   Egypt   Cairo   Past weeks
Flag for Egypt

Past Weather in Cairo, Egypt — Yesterday and Last 2 Weeks

Currently: 57 °F. Clear. (Weather station: Cairo Airport, Egypt). See more current weather

Past Weather in Cairo — Graph

°F

Cairo Temperature Yesterday

Maximum temperature yesterday: 75 °F (at 3:30 pm)
Minimum temperature yesterday: 52 °F (at 4:30 am)
Average temperature yesterday: 63 °F

High & Low Weather Summary for the Past Weeks

 TemperatureHumidityPressure
High93 °F (Apr 6, 3:00 pm)88% (Apr 8, 3:30 am)30.18 "Hg (Apr 8, 3:30 am)
Low50 °F (Apr 3, 6:00 am)9% (Apr 5, 3:00 pm)29.80 "Hg (Apr 6, 2:00 pm)
Average65 °F48%30.05 "Hg
* Reported Mar 30 1:00 am — Apr 14 1:00 am, Cairo. Weather by CustomWeather, © 2021

Note: Actual official high and low records may vary slightly from our data, if they occured in-between our weather recording intervals... More about our weather records

Cairo Weather History for the Previous 24 Hours

Scroll right to see more
 ConditionsComfort  
Time TempWeatherWind HumidityBarometerVisibility
1:00 am
Wed, Apr 14
59 °FClear.14 mph63%30.09 "Hg10 mi
12:30 am59 °FClear.16 mph63%30.09 "Hg10 mi
12:00 am59 °FClear.18 mph63%30.09 "Hg10 mi
11:30 pm
Tue, Apr 13
59 °FClear.13 mph63%30.09 "Hg10 mi
11:00 pm59 °FClear.15 mph63%30.12 "Hg10 mi
10:30 pm61 °FClear.18 mph59%30.12 "Hg10 mi
10:00 pm61 °FClear.21 mph55%30.12 "Hg10 mi
9:30 pm61 °FClear.24 mph55%30.12 "Hg10 mi
9:00 pm63 °FClear.20 mph52%30.12 "Hg10 mi
8:30 pm64 °FClear.20 mph49%30.09 "Hg10 mi
8:00 pm64 °FClear.20 mph49%30.09 "Hg10 mi
7:30 pm66 °FClear.20 mph46%30.09 "Hg10 mi
7:00 pm68 °FClear.17 mph43%30.07 "Hg10 mi
6:30 pm70 °FClear.15 mph40%30.07 "Hg10 mi
6:00 pm72 °FSunny.14 mph38%30.07 "Hg10 mi
5:30 pm73 °FSunny.12 mph33%30.07 "Hg10 mi
5:00 pm73 °FSunny.13 mph33%30.07 "Hg10 mi
4:30 pm73 °FSunny.12 mph33%30.07 "Hg10 mi
4:00 pm73 °FSunny.14 mph33%30.07 "Hg10 mi
3:30 pm75 °FSunny.12 mph31%30.07 "Hg10 mi
3:00 pm73 °FSunny.10 mph31%30.07 "Hg10 mi
2:30 pm73 °FSunny.8 mph33%30.07 "Hg10 mi
2:00 pm72 °FSunny.12 mph33%30.09 "Hg10 mi
1:30 pm72 °FSunny.9 mph33%30.09 "Hg10 mi
1:00 pm72 °FSunny.8 mph36%30.09 "Hg10 mi
12:30 pm70 °FSunny.10 mph38%30.12 "Hg10 mi
12:00 pm68 °FSunny.13 mph38%30.12 "Hg10 mi
11:30 am66 °FSunny.12 mph43%30.12 "Hg10 mi
11:00 am64 °FSunny.15 mph46%30.15 "Hg10 mi
10:00 am63 °FSunny.17 mph45%30.15 "Hg10 mi
9:30 am63 °FSunny.16 mph49%30.15 "Hg10 mi
9:00 am63 °FSunny.17 mph52%30.15 "Hg10 mi
8:30 am61 °FSunny.16 mph55%30.15 "Hg10 mi
8:00 am57 °FSunny.12 mph63%30.12 "Hg10 mi
7:30 am57 °FSunny.12 mph63%30.12 "Hg10 mi
7:00 am55 °FSunny.6 mph72%30.12 "Hg10 mi
6:30 am54 °FSunny.6 mph77%30.12 "Hg10 mi
6:00 am52 °FSunny.7 mph77%30.12 "Hg10 mi
5:30 am52 °FSunny.6 mph72%30.12 "Hg10 mi
5:00 am52 °FClear.7 mph72%30.09 "Hg10 mi
4:30 am52 °FClear.8 mph72%30.09 "Hg10 mi
4:00 am54 °FClear.7 mph72%30.09 "Hg10 mi
3:30 am54 °FClear.8 mph72%30.09 "Hg10 mi
3:00 am54 °FClear.8 mph67%30.09 "Hg10 mi
2:30 am54 °FClear.7 mph72%30.09 "Hg10 mi
2:00 am55 °FClear.8 mph67%30.12 "Hg10 mi
Weather by CustomWeather, © 2021

See weather overview